sensor_id;sensor_type;location;lat;lon;timestamp;P1;durP1;ratioP1;P2;durP2;ratioP2
11173;SDS011;5643;50.856;12.088;2022-09-09T06:44:52;0.40;;;0.40;;
11173;SDS011;5643;50.856;12.088;2022-09-09T06:47:27;0.63;;;0.50;;
11173;SDS011;5643;50.856;12.088;2022-09-09T06:50:09;1.00;;;0.57;;
11173;SDS011;5643;50.856;12.088;2022-09-09T06:52:46;0.50;;;0.50;;
11173;SDS011;5643;50.856;12.088;2022-09-09T06:55:21;0.80;;;0.50;;
11173;SDS011;5643;50.856;12.088;2022-09-09T06:57:53;0.60;;;0.50;;
11173;SDS011;5643;50.856;12.088;2022-09-09T07:00:26;0.77;;;0.40;;
11173;SDS011;5643;50.856;12.088;2022-09-09T07:03:04;0.40;;;0.40;;
11173;SDS011;5643;50.856;12.088;2022-09-09T07:05:42;0.50;;;0.50;;
11173;SDS011;5643;50.856;12.088;2022-09-09T07:08:10;0.77;;;0.60;;
11173;SDS011;5643;50.856;12.088;2022-09-09T07:10:43;0.70;;;0.50;;
11173;SDS011;5643;50.856;12.088;2022-09-09T07:13:11;0.53;;;0.53;;
11173;SDS011;5643;50.856;12.088;2022-09-09T07:15:46;1.57;;;0.60;;
11173;SDS011;5643;50.856;12.088;2022-09-09T07:18:14;1.00;;;0.70;;
11173;SDS011;5643;50.856;12.088;2022-09-09T07:20:54;0.60;;;0.60;;
11173;SDS011;5643;50.856;12.088;2022-09-09T07:23:24;0.73;;;0.60;;
11173;SDS011;5643;50.856;12.088;2022-09-09T07:25:51;0.50;;;0.50;;
11173;SDS011;5643;50.856;12.088;2022-09-09T07:28:21;0.60;;;0.60;;
11173;SDS011;5643;50.856;12.088;2022-09-09T07:30:57;0.70;;;0.70;;
11173;SDS011;5643;50.856;12.088;2022-09-09T07:33:40;0.53;;;0.53;;
11173;SDS011;5643;50.856;12.088;2022-09-09T07:36:16;0.70;;;0.70;;
11173;SDS011;5643;50.856;12.088;2022-09-09T07:39:02;1.20;;;0.60;;
11173;SDS011;5643;50.856;12.088;2022-09-09T07:41:49;1.20;;;0.63;;
11173;SDS011;5643;50.856;12.088;2022-09-09T07:44:36;0.83;;;0.50;;
11173;SDS011;5643;50.856;12.088;2022-09-09T08:48:51;0.57;;;0.40;;
11173;SDS011;5643;50.856;12.088;2022-09-09T08:51:36;0.63;;;0.40;;
11173;SDS011;5643;50.856;12.088;2022-09-09T08:54:03;0.40;;;0.40;;
11173;SDS011;5643;50.856;12.088;2022-09-09T08:56:33;0.30;;;0.30;;
11173;SDS011;5643;50.856;12.088;2022-09-09T08:59:04;0.87;;;0.53;;
11173;SDS011;5643;50.856;12.088;2022-09-09T09:01:46;0.40;;;0.40;;
11173;SDS011;5643;50.856;12.088;2022-09-09T09:07:59;0.80;;;0.50;;
11173;SDS011;5643;50.856;12.088;2022-09-09T09:10:46;0.30;;;0.30;;
11173;SDS011;5643;50.856;12.088;2022-09-09T09:13:35;0.97;;;0.50;;
11173;SDS011;5643;50.856;12.088;2022-09-09T09:16:21;0.70;;;0.47;;
11173;SDS011;5643;50.856;12.088;2022-09-09T09:19:04;0.63;;;0.40;;
11173;SDS011;5643;50.856;12.088;2022-09-09T09:21:35;0.73;;;0.40;;
11173;SDS011;5643;50.856;12.088;2022-09-09T09:24:18;1.10;;;0.93;;
11173;SDS011;5643;50.856;12.088;2022-09-09T09:26:49;1.40;;;1.00;;
11173;SDS011;5643;50.856;12.088;2022-09-09T09:29:20;2.23;;;1.13;;
11173;SDS011;5643;50.856;12.088;2022-09-09T09:31:51;1.30;;;0.80;;
11173;SDS011;5643;50.856;12.088;2022-09-09T09:34:20;0.70;;;0.50;;
11173;SDS011;5643;50.856;12.088;2022-09-09T09:36:53;1.23;;;0.60;;
11173;SDS011;5643;50.856;12.088;2022-09-09T09:39:28;0.93;;;0.60;;
11173;SDS011;5643;50.856;12.088;2022-09-09T09:42:07;0.73;;;0.40;;
11173;SDS011;5643;50.856;12.088;2022-09-09T09:44:45;0.80;;;0.43;;
11173;SDS011;5643;50.856;12.088;2022-09-09T13:03:49;0.98;;;0.40;;
11173;SDS011;5643;50.856;12.088;2022-09-09T13:06:21;0.77;;;0.38;;
11173;SDS011;5643;50.856;12.088;2022-09-09T13:09:08;0.88;;;0.40;;
11173;SDS011;5643;50.856;12.088;2022-09-09T13:11:44;0.57;;;0.40;;
11173;SDS011;5643;50.856;12.088;2022-09-09T13:14:19;0.47;;;0.30;;
11173;SDS011;5643;50.856;12.088;2022-09-09T13:17:05;0.98;;;0.50;;
11173;SDS011;5643;50.856;12.088;2022-09-09T13:19:47;0.35;;;0.30;;
11173;SDS011;5643;50.856;12.088;2022-09-09T13:22:34;0.20;;;0.20;;
11173;SDS011;5643;50.856;12.088;2022-09-09T13:25:17;0.90;;;0.43;;
11173;SDS011;5643;50.856;12.088;2022-09-09T13:27:54;0.30;;;0.30;;
11173;SDS011;5643;50.856;12.088;2022-09-09T13:30:24;0.85;;;0.40;;
11173;SDS011;5643;50.856;12.088;2022-09-09T13:33:00;0.40;;;0.38;;
11173;SDS011;5643;50.856;12.088;2022-09-09T13:35:35;1.25;;;0.52;;
11173;SDS011;5643;50.856;12.088;2022-09-09T13:38:13;0.60;;;0.40;;
11173;SDS011;5643;50.856;12.088;2022-09-09T13:40:52;0.43;;;0.30;;
11173;SDS011;5643;50.856;12.088;2022-09-09T13:43:44;0.60;;;0.30;;
11173;SDS011;5643;50.856;12.088;2022-09-09T13:49:19;0.75;;;0.30;;
11173;SDS011;5643;50.856;12.088;2022-09-09T13:54:39;0.57;;;0.30;;
11173;SDS011;5643;50.856;12.088;2022-09-09T13:57:14;1.23;;;0.60;;
11173;SDS011;5643;50.856;12.088;2022-09-09T13:59:44;0.73;;;0.50;;
11173;SDS011;5643;50.856;12.088;2022-09-09T14:02:18;0.40;;;0.30;;
11173;SDS011;5643;50.856;12.088;2022-09-09T14:04:47;0.70;;;0.30;;
11173;SDS011;5643;50.856;12.088;2022-09-09T14:07:22;1.60;;;0.40;;
11173;SDS011;5643;50.856;12.088;2022-09-09T14:09:53;1.10;;;0.30;;
11173;SDS011;5643;50.856;12.088;2022-09-09T14:12:21;0.82;;;0.47;;
11173;SDS011;5643;50.856;12.088;2022-09-09T14:14:49;0.73;;;0.50;;
11173;SDS011;5643;50.856;12.088;2022-09-09T14:17:22;0.47;;;0.30;;
11173;SDS011;5643;50.856;12.088;2022-09-09T14:19:59;0.30;;;0.20;;
11173;SDS011;5643;50.856;12.088;2022-09-09T14:22:28;0.45;;;0.20;;
11173;SDS011;5643;50.856;12.088;2022-09-09T14:25:07;0.73;;;0.40;;
11173;SDS011;5643;50.856;12.088;2022-09-09T14:27:41;1.35;;;0.40;;
11173;SDS011;5643;50.856;12.088;2022-09-09T14:30:12;0.50;;;0.30;;
11173;SDS011;5643;50.856;12.088;2022-09-09T14:32:41;1.23;;;0.40;;
11173;SDS011;5643;50.856;12.088;2022-09-09T14:35:10;1.55;;;0.40;;
11173;SDS011;5643;50.856;12.088;2022-09-09T14:37:38;0.57;;;0.32;;
11173;SDS011;5643;50.856;12.088;2022-09-09T14:40:16;0.22;;;0.22;;
11173;SDS011;5643;50.856;12.088;2022-09-09T14:42:45;0.57;;;0.43;;
11173;SDS011;5643;50.856;12.088;2022-09-09T14:45:14;0.60;;;0.30;;
11173;SDS011;5643;50.856;12.088;2022-09-09T14:47:55;1.02;;;0.40;;
11173;SDS011;5643;50.856;12.088;2022-09-09T20:53:36;1.50;;;1.40;;
11173;SDS011;5643;50.856;12.088;2022-09-09T20:56:26;1.67;;;1.30;;
11173;SDS011;5643;50.856;12.088;2022-09-09T20:58:58;1.43;;;1.07;;
11173;SDS011;5643;50.856;12.088;2022-09-09T21:01:26;1.20;;;1.10;;
11173;SDS011;5643;50.856;12.088;2022-09-09T21:03:54;1.70;;;1.40;;
11173;SDS011;5643;50.856;12.088;2022-09-09T21:06:24;1.53;;;1.30;;
11173;SDS011;5643;50.856;12.088;2022-09-09T21:08:56;1.67;;;1.27;;
11173;SDS011;5643;50.856;12.088;2022-09-09T21:11:24;1.20;;;1.00;;
11173;SDS011;5643;50.856;12.088;2022-09-09T21:13:52;1.03;;;0.97;;
11173;SDS011;5643;50.856;12.088;2022-09-09T21:16:21;1.03;;;0.80;;
11173;SDS011;5643;50.856;12.088;2022-09-09T21:18:49;0.67;;;0.60;;
11173;SDS011;5643;50.856;12.088;2022-09-09T21:21:18;0.77;;;0.53;;
11173;SDS011;5643;50.856;12.088;2022-09-09T21:23:48;1.03;;;0.50;;
11173;SDS011;5643;50.856;12.088;2022-09-09T21:26:25;0.47;;;0.43;;
11173;SDS011;5643;50.856;12.088;2022-09-09T21:28:52;0.60;;;0.40;;
11173;SDS011;5643;50.856;12.088;2022-09-09T21:31:20;0.90;;;0.50;;
11173;SDS011;5643;50.856;12.088;2022-09-09T21:33:50;0.73;;;0.40;;
11173;SDS011;5643;50.856;12.088;2022-09-09T21:36:17;0.73;;;0.50;;
11173;SDS011;5643;50.856;12.088;2022-09-09T21:38:49;0.63;;;0.60;;
11173;SDS011;5643;50.856;12.088;2022-09-09T21:41:21;0.40;;;0.40;;
11173;SDS011;5643;50.856;12.088;2022-09-09T21:43:52;0.40;;;0.40;;
11173;SDS011;5643;50.856;12.088;2022-09-09T21:46:23;1.40;;;0.60;;
11173;SDS011;5643;50.856;12.088;2022-09-09T21:48:54;0.40;;;0.40;;
11173;SDS011;5643;50.856;12.088;2022-09-09T21:51:23;0.40;;;0.40;;
11173;SDS011;5643;50.856;12.088;2022-09-09T21:53:53;0.67;;;0.40;;
11173;SDS011;5643;50.856;12.088;2022-09-09T21:56:21;0.50;;;0.47;;
11173;SDS011;5643;50.856;12.088;2022-09-09T22:01:37;0.30;;;0.30;;
11173;SDS011;5643;50.856;12.088;2022-09-09T22:04:08;0.63;;;0.50;;
11173;SDS011;5643;50.856;12.088;2022-09-09T22:06:36;0.50;;;0.40;;
11173;SDS011;5643;50.856;12.088;2022-09-09T22:09:04;0.37;;;0.30;;
11173;SDS011;5643;50.856;12.088;2022-09-09T22:11:33;0.40;;;0.40;;
11173;SDS011;5643;50.856;12.088;2022-09-09T22:14:02;0.40;;;0.30;;
11173;SDS011;5643;50.856;12.088;2022-09-09T22:16:34;0.37;;;0.33;;
11173;SDS011;5643;50.856;12.088;2022-09-09T22:19:03;0.30;;;0.30;;
11173;SDS011;5643;50.856;12.088;2022-09-09T22:21:32;0.47;;;0.40;;
11173;SDS011;5643;50.856;12.088;2022-09-09T22:24:05;0.43;;;0.40;;
11173;SDS011;5643;50.856;12.088;2022-09-09T22:26:35;0.23;;;0.23;;
11173;SDS011;5643;50.856;12.088;2022-09-09T22:29:03;0.57;;;0.40;;
11173;SDS011;5643;50.856;12.088;2022-09-09T22:31:46;0.73;;;0.40;;
11173;SDS011;5643;50.856;12.088;2022-09-09T22:34:16;0.40;;;0.40;;
11173;SDS011;5643;50.856;12.088;2022-09-09T22:36:47;0.40;;;0.40;;
11173;SDS011;5643;50.856;12.088;2022-09-09T22:39:17;0.40;;;0.40;;
11173;SDS011;5643;50.856;12.088;2022-09-09T22:41:44;0.50;;;0.40;;
11173;SDS011;5643;50.856;12.088;2022-09-09T22:44:12;0.50;;;0.40;;
11173;SDS011;5643;50.856;12.088;2022-09-09T22:46:41;0.40;;;0.30;;
11173;SDS011;5643;50.856;12.088;2022-09-09T22:49:11;1.37;;;0.47;;
11173;SDS011;5643;50.856;12.088;2022-09-09T22:51:47;0.57;;;0.40;;
